Time;durP1;ratioP1;P1;durP2;ratioP2;P2;SDS_P1;SDS_P2;PMS_P1;PMS_P2;Temp;Humidity;BMP_temperature;BMP_pressure;BME280_temperature;BME280_humidity;BME280_pressure;Samples;Min_cycle;Max_cycle;Signal;HPM_P1;HPM_P2
2021/03/02 00:00:31;;;;;;;57.93;30.30;;;;;;;2.94;77.60;102091.67;2111841;83;21121;-85
2021/03/02 00:03:35;;;;;;;57.38;31.12;;;;;;;3.01;77.54;102089.61;2113276;82;21129;-86
2021/03/02 00:06:38;;;;;;;62.33;31.07;;;;;;;3.08;77.54;102080.09;2115635;83;21138;-85
2021/03/02 00:09:40;;;;;;;58.23;29.82;;;;;;;3.07;77.35;102078.40;2112431;83;21564;-86
2021/03/02 00:12:42;;;;;;;55.33;26.90;;;;;;;3.04;77.33;102074.60;2112211;83;21602;-85
2021/03/02 00:15:43;;;;;;;46.08;25.00;;;;;;;2.92;77.29;102085.16;2115139;83;21102;-85
2021/03/02 00:18:53;;;;;;;52.45;25.25;;;;;;;2.78;77.58;102073.14;2112528;83;21091;-85
2021/03/02 00:22:00;;;;;;;49.65;24.65;;;;;;;2.65;77.73;102080.72;2111350;83;21110;-85
2021/03/02 00:25:05;;;;;;;55.30;26.97;;;;;;;2.56;77.89;102085.50;2113587;83;21097;-86
2021/03/02 00:28:09;;;;;;;44.25;26.23;;;;;;;2.48;78.15;102076.68;2114612;83;21151;-84
2021/03/02 00:31:11;;;;;;;59.25;27.52;;;;;;;2.43;78.45;102083.42;2110524;83;21150;-85
2021/03/02 00:34:12;;;;;;;54.27;27.87;;;;;;;2.38;78.35;102091.08;2098573;83;21175;-86
2021/03/02 00:37:14;;;;;;;54.03;27.45;;;;;;;2.36;78.40;102093.76;2114614;83;21216;-85
2021/03/02 00:40:19;;;;;;;54.35;26.75;;;;;;;2.34;78.54;102096.08;2113301;83;21442;-86
2021/03/02 00:43:20;;;;;;;46.63;25.32;;;;;;;2.35;78.47;102104.32;2113432;83;21154;-87
2021/03/02 00:46:22;;;;;;;48.63;25.75;;;;;;;2.36;78.49;102096.84;2115347;83;21133;-84
2021/03/02 00:49:23;;;;;;;49.10;25.43;;;;;;;2.34;78.60;102090.84;2112265;83;21099;-86
2021/03/02 00:52:25;;;;;;;52.78;27.00;;;;;;;2.34;78.51;102090.38;2115975;82;21147;-85
2021/03/02 00:55:27;;;;;;;53.28;27.77;;;;;;;2.36;78.56;102095.06;2114196;83;21628;-85
2021/03/02 00:58:29;;;;;;;58.13;29.82;;;;;;;2.34;78.55;102087.75;2113054;83;21587;-84
2021/03/02 01:01:32;;;;;;;55.48;27.65;;;;;;;2.30;78.63;102086.63;2117625;83;21158;-87
2021/03/02 01:04:35;;;;;;;49.65;26.60;;;;;;;2.27;78.68;102090.69;2117305;83;21209;-85
2021/03/02 01:07:37;;;;;;;50.33;26.05;;;;;;;2.32;78.76;102078.25;2112366;83;21156;-85
2021/03/02 01:10:40;;;;;;;50.80;28.17;;;;;;;2.37;78.70;102077.60;2114161;83;21993;-85
2021/03/02 01:13:42;;;;;;;52.25;27.45;;;;;;;2.40;78.62;102073.54;2109911;83;21553;-86
2021/03/02 01:16:44;;;;;;;58.87;28.98;;;;;;;2.44;78.65;102070.70;2115007;82;21169;-86
2021/03/02 01:19:45;;;;;;;56.88;31.42;;;;;;;2.43;78.86;102070.78;2112888;83;21078;-86
2021/03/02 01:22:47;;;;;;;64.65;31.87;;;;;;;2.36;78.68;102068.02;2112380;83;21157;-84
2021/03/02 01:25:49;;;;;;;52.60;27.13;;;;;;;2.33;78.78;102073.39;2108426;83;21169;-85
2021/03/02 01:28:50;;;;;;;55.92;29.07;;;;;;;2.32;78.89;102063.84;2115338;83;21123;-85
2021/03/02 01:31:52;;;;;;;55.30;28.85;;;;;;;2.24;78.94;102070.25;2112939;83;21549;-85
2021/03/02 01:34:53;;;;;;;49.93;28.45;;;;;;;2.24;79.05;102065.47;2116468;83;21705;-86
2021/03/02 01:37:55;;;;;;;59.18;29.98;;;;;;;2.23;79.27;102058.08;2115634;83;21187;-85
2021/03/02 01:40:56;;;;;;;57.27;29.87;;;;;;;2.17;79.48;102061.44;2116608;83;21137;-85
2021/03/02 01:43:58;;;;;;;59.55;31.57;;;;;;;2.09;79.44;102057.81;2118059;83;21122;-85
2021/03/02 01:47:00;;;;;;;55.10;30.70;;;;;;;2.06;79.41;102054.48;2116647;83;21160;-86
2021/03/02 01:50:04;;;;;;;51.08;29.65;;;;;;;2.08;79.63;102056.09;2116676;83;21628;-84
2021/03/02 01:53:06;;;;;;;56.33;28.40;;;;;;;2.06;79.55;102054.02;2120631;83;21122;-86
2021/03/02 01:56:07;;;;;;;55.33;30.32;;;;;;;2.05;80.04;102051.45;2118895;83;21156;-86
2021/03/02 01:59:11;;;;;;;61.53;31.70;;;;;;;1.99;79.75;102053.41;2115421;83;21266;-86
2021/03/02 02:02:23;;;;;;;64.77;33.73;;;;;;;1.99;80.12;102046.02;2114765;83;21588;-87
2021/03/02 02:05:27;;;;;;;65.05;34.18;;;;;;;1.98;79.94;102052.18;2113089;83;21595;-85
2021/03/02 02:09:07;;;;;;;62.03;31.50;;;;;;;1.95;80.06;102041.38;2115343;83;21163;-86
2021/03/02 02:12:33;;;;;;;62.83;31.20;;;;;;;1.96;80.00;102044.84;2117147;83;21116;-88
2021/03/02 02:15:38;;;;;;;60.33;31.90;;;;;;;2.00;80.07;102039.88;2117885;83;21167;-87
2021/03/02 02:18:42;;;;;;;61.63;32.48;;;;;;;2.00;80.07;102035.49;2117688;83;21160;-86
2021/03/02 02:22:15;;;;;;;68.17;34.65;;;;;;;1.99;79.97;102046.02;2096645;82;21163;-87
2021/03/02 02:25:28;;;;;;;66.20;34.43;;;;;;;2.01;80.04;102035.88;2090423;84;21112;-87
2021/03/02 02:28:33;;;;;;;74.32;35.80;;;;;;;1.98;80.08;102038.62;2094143;84;21179;-87
2021/03/02 02:31:38;;;;;;;67.47;32.83;;;;;;;1.95;80.07;102026.13;2081023;84;21245;-87
2021/03/02 02:34:42;;;;;;;64.62;33.42;;;;;;;1.95;80.19;102039.22;2123128;82;21102;-87
2021/03/02 02:37:44;;;;;;;70.52;34.38;;;;;;;1.86;80.27;102029.98;2050498;84;21542;-87
2021/03/02 02:40:48;;;;;;;62.05;33.75;;;;;;;1.75;80.37;102028.27;2072702;85;21179;-86
2021/03/02 02:43:51;;;;;;;69.80;35.63;;;;;;;1.69;80.52;102035.04;2067612;85;21571;-85
2021/03/02 02:46:56;;;;;;;77.45;38.28;;;;;;;1.66;80.78;102032.55;2068618;85;21153;-87
2021/03/02 02:49:58;;;;;;;86.60;39.23;;;;;;;1.68;80.72;102030.73;2072343;84;21115;-87
2021/03/02 02:53:00;;;;;;;75.37;39.38;;;;;;;1.75;80.76;102025.19;2067662;85;21120;-86
2021/03/02 02:56:04;;;;;;;83.22;39.80;;;;;;;1.71;80.84;102023.59;2066990;84;21171;-86
2021/03/02 02:59:22;;;;;;;73.17;38.08;;;;;;;1.65;81.19;102017.77;2068327;84;21132;-87
2021/03/02 03:02:28;;;;;;;84.13;39.65;;;;;;;1.63;81.06;102019.13;2073351;85;21191;-86
2021/03/02 03:05:32;;;;;;;77.65;39.50;;;;;;;1.64;81.23;102018.23;2069617;85;21104;-86
2021/03/02 03:08:34;;;;;;;69.20;35.68;;;;;;;1.64;81.25;102023.47;2069344;85;21167;-87
2021/03/02 03:11:43;;;;;;;71.15;35.83;;;;;;;1.68;81.27;102021.11;2071028;85;21154;-87
2021/03/02 03:14:54;;;;;;;75.87;36.98;;;;;;;1.69;81.16;102009.75;2066689;85;21204;-87
2021/03/02 03:17:58;;;;;;;71.10;36.80;;;;;;;1.73;81.20;102021.78;2045211;85;21084;-86
2021/03/02 03:21:01;;;;;;;71.72;36.60;;;;;;;1.78;81.15;102021.13;2069130;85;21171;-86
2021/03/02 03:24:04;;;;;;;69.72;35.48;;;;;;;1.73;81.11;102012.61;2071441;85;21096;-87
2021/03/02 03:27:06;;;;;;;66.33;32.53;;;;;;;1.72;81.14;102020.55;2067468;85;21163;-88
2021/03/02 03:30:10;;;;;;;73.70;36.88;;;;;;;1.72;81.13;102020.09;2069215;84;21141;-86
2021/03/02 03:33:15;;;;;;;73.28;37.30;;;;;;;1.80;81.32;102021.05;2040107;85;21655;-87
2021/03/02 03:36:16;;;;;;;73.70;37.58;;;;;;;1.79;81.37;102022.83;2037775;86;21194;-85
2021/03/02 03:39:18;;;;;;;76.53;37.28;;;;;;;1.69;81.41;102022.83;2038934;86;21092;-87
2021/03/02 03:42:19;;;;;;;61.02;31.20;;;;;;;1.62;81.35;102025.75;2036623;86;21184;-86
2021/03/02 03:45:21;;;;;;;63.48;33.38;;;;;;;1.62;81.58;102027.91;2031905;85;22417;-87
2021/03/02 03:48:26;;;;;;;67.78;33.60;;;;;;;1.54;81.59;102022.12;2035065;86;21139;-88
2021/03/02 03:51:28;;;;;;;66.82;34.00;;;;;;;1.49;81.65;102022.77;2038411;86;21159;-86
2021/03/02 03:54:31;;;;;;;74.00;37.10;;;;;;;1.53;81.75;102034.83;2030845;86;21148;-88
2021/03/02 03:57:32;;;;;;;76.20;39.20;;;;;;;1.61;81.74;102024.91;2014326;85;21184;-87
2021/03/02 04:00:35;;;;;;;76.65;36.70;;;;;;;1.51;81.84;102028.34;2034721;86;21205;-88
2021/03/02 04:03:38;;;;;;;68.92;32.98;;;;;;;1.43;81.81;102031.71;2035757;85;21242;-87
2021/03/02 04:06:39;;;;;;;62.85;31.30;;;;;;;1.42;82.00;102029.17;2036214;85;21124;-86
2021/03/02 04:09:42;;;;;;;62.90;33.23;;;;;;;1.45;81.95;102032.52;2035339;85;21532;-87
2021/03/02 04:12:46;;;;;;;66.62;34.08;;;;;;;1.50;81.93;102034.95;2003845;86;21223;-86
2021/03/02 04:15:48;;;;;;;71.50;35.83;;;;;;;1.58;81.97;102035.50;2034782;85;21654;-86
2021/03/02 04:18:49;;;;;;;80.92;35.23;;;;;;;1.63;81.88;102039.22;2032196;86;21196;-87
2021/03/02 04:21:51;;;;;;;71.62;34.90;;;;;;;1.56;81.84;102030.31;2032163;85;21182;-87
2021/03/02 04:24:52;;;;;;;69.72;35.78;;;;;;;1.49;81.87;102034.55;2029453;86;21160;-86
2021/03/02 04:27:54;;;;;;;71.60;34.92;;;;;;;1.47;81.89;102039.00;2035635;86;21177;-88
2021/03/02 04:30:56;;;;;;;68.70;35.45;;;;;;;1.45;81.98;102032.52;2041069;85;21123;-86
2021/03/02 04:33:57;;;;;;;69.12;37.28;;;;;;;1.46;82.16;102036.82;2048331;84;21219;-86
2021/03/02 04:36:59;;;;;;;68.30;36.50;;;;;;;1.49;82.22;102028.88;2090883;84;21600;-87
2021/03/02 04:40:00;;;;;;;62.30;30.50;;;;;;;1.58;82.26;102025.03;2093134;84;21614;-85
2021/03/02 04:43:02;;;;;;;63.78;31.68;;;;;;;1.62;82.05;102021.83;2115770;83;21195;-86
2021/03/02 04:46:04;;;;;;;61.18;32.05;;;;;;;1.59;81.92;102029.34;2067126;85;21092;-87
2021/03/02 04:49:05;;;;;;;63.73;30.52;;;;;;;1.54;81.92;102030.83;2095464;84;21517;-86
2021/03/02 04:52:07;;;;;;;61.20;29.57;;;;;;;1.55;81.96;102025.16;2079373;84;21098;-86
2021/03/02 04:55:10;;;;;;;55.73;29.90;;;;;;;1.52;81.93;102025.26;2085978;84;21143;-86
2021/03/02 04:58:11;;;;;;;67.87;34.85;;;;;;;1.56;82.09;102018.55;2083004;84;21176;-86
2021/03/02 05:01:13;;;;;;;74.75;35.95;;;;;;;1.65;82.18;102010.77;2074813;84;21570;-86
2021/03/02 05:04:14;;;;;;;66.95;33.80;;;;;;;1.72;82.15;102010.92;2076047;84;21586;-86
2021/03/02 05:07:16;;;;;;;65.62;30.52;;;;;;;1.67;81.93;102010.26;2075814;84;21476;-88
2021/03/02 05:10:18;;;;;;;70.87;31.50;;;;;;;1.61;81.86;102011.83;2115358;83;21115;-87
2021/03/02 05:13:19;;;;;;;69.95;31.50;;;;;;;1.56;81.92;102008.08;2117802;83;21180;-87
2021/03/02 05:16:21;;;;;;;69.50;30.97;;;;;;;1.57;82.07;102016.77;2117267;83;21118;-88
2021/03/02 05:19:22;;;;;;;61.80;31.07;;;;;;;1.52;82.04;102008.25;2116313;83;21118;-86
2021/03/02 05:22:24;;;;;;;78.60;30.95;;;;;;;1.51;82.02;102006.09;2116928;83;21067;-86
2021/03/02 05:25:25;;;;;;;87.33;35.15;;;;;;;1.56;82.16;102009.84;2117250;83;21188;-85
2021/03/02 05:28:27;;;;;;;71.02;34.65;;;;;;;1.55;82.09;102005.54;2117784;83;21198;-87
2021/03/02 05:31:28;;;;;;;101.20;36.45;;;;;;;1.55;82.21;102009.46;2119241;83;21118;-88
2021/03/02 05:34:31;;;;;;;78.80;35.55;;;;;;;1.60;82.26;102018.41;2119126;83;21597;-86
2021/03/02 05:37:33;;;;;;;72.32;30.55;;;;;;;1.61;82.17;102013.13;2115456;83;21106;-86
2021/03/02 05:40:35;;;;;;;75.05;32.00;;;;;;;1.59;82.09;102026.73;2117331;83;21132;-86
2021/03/02 05:43:42;;;;;;;67.25;31.25;;;;;;;1.59;82.07;102021.95;2102793;83;21131;-88
2021/03/02 05:46:44;;;;;;;74.75;30.92;;;;;;;1.57;82.01;102035.09;2115884;83;21160;-88
2021/03/02 05:49:46;;;;;;;65.75;30.77;;;;;;;1.60;82.13;102037.58;2118483;83;21191;-87
2021/03/02 05:52:48;;;;;;;90.38;32.78;;;;;;;1.64;82.10;102037.86;2117696;83;21153;-88
2021/03/02 05:55:50;;;;;;;74.40;31.17;;;;;;;1.66;82.09;102028.20;2114561;83;21635;-86
2021/03/02 05:58:52;;;;;;;110.65;31.65;;;;;;;1.72;82.15;102026.63;2116529;83;21064;-85
2021/03/02 06:01:53;;;;;;;73.37;31.42;;;;;;;1.69;81.98;102027.19;2118805;83;21224;-87
2021/03/02 06:04:55;;;;;;;64.12;32.33;;;;;;;1.65;82.04;102024.32;2116729;83;21748;-87
2021/03/02 06:07:57;;;;;;;67.65;30.00;;;;;;;1.62;82.02;102022.67;2119045;83;21110;-86
2021/03/02 06:11:28;;;;;;;67.32;30.35;;;;;;;1.66;82.06;102027.31;2117031;83;21161;-86
2021/03/02 06:14:32;;;;;;;90.38;30.88;;;;;;;1.62;81.83;102023.98;2114151;83;21138;-89
2021/03/02 06:17:34;;;;;;;71.12;32.73;;;;;;;1.61;81.96;102021.45;2117356;83;21154;-87
2021/03/02 06:20:37;;;;;;;109.65;32.80;;;;;;;1.65;82.20;102021.23;2117938;83;21541;-87
2021/03/02 06:23:49;;;;;;;106.75;33.45;;;;;;;1.75;82.24;102029.12;2116132;83;21133;-87
2021/03/02 06:27:09;;;;;;;70.90;32.83;;;;;;;1.78;82.16;102028.98;2113578;83;21161;-84
2021/03/02 06:30:14;;;;;;;74.32;29.80;;;;;;;1.82;82.13;102031.47;2118732;83;21132;-86
2021/03/02 06:33:18;;;;;;;77.27;31.62;;;;;;;1.82;81.88;102024.47;2117078;83;21589;-87
2021/03/02 06:36:20;;;;;;;65.15;32.98;;;;;;;1.82;82.00;102017.08;2115212;83;21513;-87
2021/03/02 06:39:43;;;;;;;94.60;34.18;;;;;;;1.89;82.02;102022.47;2113738;83;21614;-86
2021/03/02 06:42:45;;;;;;;90.17;35.20;;;;;;;1.95;82.15;102024.36;2112939;83;21149;-88
2021/03/02 06:45:50;;;;;;;77.32;34.73;;;;;;;1.97;81.98;102036.05;2117057;83;21107;-87
2021/03/02 06:48:58;;;;;;;86.40;34.05;;;;;;;1.95;82.01;102038.75;2115219;83;21119;-87
2021/03/02 06:52:13;;;;;;;54.90;25.85;;;;;;;1.97;81.97;102045.22;2112322;83;21297;-88
2021/03/02 06:55:22;;;;;;;84.60;30.97;;;;;;;1.84;81.56;102041.44;2114468;83;21146;-85
2021/03/02 06:58:25;;;;;;;71.50;30.43;;;;;;;1.76;81.79;102042.59;2116884;83;21089;-87
2021/03/02 07:01:37;;;;;;;68.05;30.05;;;;;;;1.73;81.79;102034.86;2116145;83;21720;-88
2021/03/02 07:04:38;;;;;;;84.77;32.67;;;;;;;1.83;82.03;102040.59;2110681;83;21112;-87
2021/03/02 07:07:42;;;;;;;75.83;34.30;;;;;;;1.92;82.19;102039.35;2117045;83;21621;-88
2021/03/02 07:10:49;;;;;;;84.80;32.28;;;;;;;1.95;82.05;102043.14;2116652;83;21142;-86
2021/03/02 07:13:50;;;;;;;75.80;35.83;;;;;;;1.94;82.03;102044.04;2109808;83;21184;-87
2021/03/02 07:16:52;;;;;;;77.97;32.75;;;;;;;1.94;82.01;102045.35;2114941;83;22797;-86
2021/03/02 07:19:57;;;;;;;71.57;31.20;;;;;;;1.97;82.01;102047.84;2111269;83;21205;-86
2021/03/02 07:23:01;;;;;;;65.90;29.70;;;;;;;1.95;82.00;102049.23;2115085;83;21066;-85
2021/03/02 07:26:04;;;;;;;69.40;30.57;;;;;;;1.98;81.99;102044.33;2114576;83;21164;-86
2021/03/02 07:29:05;;;;;;;68.92;30.85;;;;;;;2.04;82.04;102049.30;2113456;83;21136;-86
2021/03/02 07:32:10;;;;;;;78.65;32.83;;;;;;;2.10;81.92;102041.64;2111837;83;21138;-86
2021/03/02 07:35:34;;;;;;;82.23;35.40;;;;;;;2.12;82.02;102034.58;2095069;83;21695;-85
2021/03/02 07:38:36;;;;;;;80.40;35.33;;;;;;;2.15;82.02;102049.70;2069698;85;21626;-79
2021/03/02 07:41:38;;;;;;;90.72;34.92;;;;;;;2.13;81.86;102041.05;2073010;84;21205;-80
2021/03/02 07:45:08;;;;;;;77.25;34.65;;;;;;;2.16;82.00;102041.38;2076654;84;21163;-79
2021/03/02 07:48:26;;;;;;;75.20;35.10;;;;;;;2.22;82.00;102036.74;2080879;84;21163;-79
2021/03/02 07:51:28;;;;;;;71.92;33.75;;;;;;;2.33;82.13;102039.34;2077524;84;21188;-79
2021/03/02 07:54:33;;;;;;;66.55;33.15;;;;;;;2.38;81.89;102045.23;2079932;84;21211;-78
2021/03/02 07:57:35;;;;;;;81.30;35.65;;;;;;;2.45;82.04;102046.68;2078240;84;21140;-78
2021/03/02 08:00:37;;;;;;;79.82;34.10;;;;;;;2.46;81.91;102047.06;2079331;84;21165;-76
2021/03/02 08:03:38;;;;;;;75.70;34.18;;;;;;;2.43;81.74;102053.75;2076713;84;21148;-76
2021/03/02 08:06:43;;;;;;;77.85;37.35;;;;;;;2.43;81.87;102049.36;2074205;84;21133;-78
2021/03/02 08:09:45;;;;;;;79.58;36.23;;;;;;;2.45;81.83;102046.22;2042272;85;21643;-77
2021/03/02 08:12:47;;;;;;;78.28;37.83;;;;;;;2.47;81.83;102058.77;2049417;85;21238;-77
2021/03/02 08:15:49;;;;;;;70.17;34.35;;;;;;;2.58;81.99;102062.70;2048522;85;21556;-78
2021/03/02 08:18:51;;;;;;;72.15;34.45;;;;;;;2.73;82.05;102053.30;2046207;85;21267;-78
2021/03/02 08:21:53;;;;;;;79.58;35.78;;;;;;;2.84;82.02;102054.97;2047032;85;22248;-78
2021/03/02 08:25:05;;;;;;;88.52;37.78;;;;;;;2.90;81.67;102051.63;2048087;85;21233;-78
2021/03/02 08:28:09;;;;;;;87.12;39.40;;;;;;;2.91;81.85;102054.63;2049210;85;21139;-78
2021/03/02 08:31:13;;;;;;;86.57;39.65;;;;;;;2.93;81.75;102045.40;2047265;85;21357;-79
2021/03/02 08:34:18;;;;;;;82.82;36.03;;;;;;;2.98;81.78;102053.87;2050322;84;21227;-78
2021/03/02 08:37:40;;;;;;;85.35;37.42;;;;;;;2.96;81.64;102059.68;2033328;85;21253;-78
2021/03/02 08:40:47;;;;;;;76.28;35.92;;;;;;;3.04;81.92;102066.73;2026372;86;21157;-79
2021/03/02 08:43:48;;;;;;;81.32;37.90;;;;;;;3.09;81.77;102066.03;2023888;86;21649;-79
2021/03/02 08:46:56;;;;;;;80.65;38.00;;;;;;;3.20;81.75;102067.33;2025720;86;21365;-79
2021/03/02 08:49:57;;;;;;;83.70;39.55;;;;;;;3.27;81.68;102070.91;2008015;87;21177;-79
2021/03/02 08:53:00;;;;;;;87.27;40.40;;;;;;;3.31;81.52;102065.05;2008791;87;21128;-79
2021/03/02 08:56:08;;;;;;;79.92;37.48;;;;;;;3.29;81.38;102069.51;2004606;87;21329;-79
2021/03/02 08:59:14;;;;;;;80.87;37.33;;;;;;;3.26;81.25;102067.87;2036767;86;21661;-79
2021/03/02 09:02:16;;;;;;;80.28;37.08;;;;;;;3.25;81.25;102066.19;2012160;86;22279;-79
2021/03/02 09:05:19;;;;;;;79.50;37.38;;;;;;;3.31;81.32;102078.17;2012383;87;21747;-78
2021/03/02 09:08:21;;;;;;;77.37;37.17;;;;;;;3.31;81.18;102072.45;2022091;86;21279;-79
2021/03/02 09:11:43;;;;;;;85.60;41.18;;;;;;;3.46;81.35;102075.27;2017037;86;21552;-80
2021/03/02 09:14:46;;;;;;;89.75;41.20;;;;;;;3.61;81.32;102071.92;2020169;86;21378;-78
2021/03/02 09:17:48;;;;;;;89.45;40.80;;;;;;;3.79;81.29;102063.61;1979590;87;21360;-79
2021/03/02 09:20:55;;;;;;;97.72;42.30;;;;;;;3.88;80.98;102071.02;2021664;86;21341;-80
2021/03/02 09:23:59;;;;;;;87.47;39.27;;;;;;;3.95;80.90;102067.18;2025839;86;21425;-78
2021/03/02 09:27:19;;;;;;;88.70;40.05;;;;;;;3.97;80.70;102057.89;2015833;86;21212;-78
2021/03/02 09:30:24;;;;;;;85.13;40.03;;;;;;;4.09;80.90;102059.92;2022941;86;22721;-79
2021/03/02 09:33:25;;;;;;;86.17;41.08;;;;;;;4.13;80.52;102052.73;2021350;85;21596;-79
2021/03/02 09:36:30;;;;;;;82.08;40.17;;;;;;;4.23;80.90;102059.23;2022535;86;21288;-80
2021/03/02 09:39:33;;;;;;;87.92;42.33;;;;;;;4.43;80.68;102055.09;2038146;86;21221;-80
2021/03/02 09:42:38;;;;;;;96.63;43.90;;;;;;;4.63;80.60;102053.20;2039082;86;21108;-79
2021/03/02 09:45:43;;;;;;;84.62;41.58;;;;;;;4.85;80.52;102055.08;2037909;86;21177;-75
2021/03/02 09:48:49;;;;;;;86.78;41.65;;;;;;;5.05;80.31;102055.31;2034715;86;21227;-77
2021/03/02 09:51:51;;;;;;;96.82;45.10;;;;;;;5.34;80.13;102051.53;2035221;86;21318;-77
2021/03/02 09:55:18;;;;;;;86.12;40.12;;;;;;;5.65;79.67;102058.55;2035183;86;21156;-78
2021/03/02 09:58:20;;;;;;;83.33;40.43;;;;;;;5.88;79.65;102055.05;2038947;86;21632;-78
2021/03/02 10:01:28;;;;;;;64.87;35.35;;;;;;;6.16;79.25;102059.59;2037048;86;21120;-78
2021/03/02 10:04:30;;;;;;;66.12;36.23;;;;;;;6.31;78.73;102063.09;2035058;86;21125;-78
2021/03/02 10:07:45;;;;;;;66.25;35.23;;;;;;;6.45;78.26;102059.19;2016613;86;21080;-78
2021/03/02 10:10:47;;;;;;;72.85;38.45;;;;;;;6.88;78.11;102060.03;2036915;86;21263;-78
2021/03/02 10:13:59;;;;;;;70.92;36.75;;;;;;;7.33;77.53;102062.03;2035786;85;21173;-78
2021/03/02 10:17:00;;;;;;;69.37;38.48;;;;;;;7.73;77.20;102059.44;2036588;86;21131;-79
2021/03/02 10:20:06;;;;;;;69.53;36.95;;;;;;;8.24;77.03;102065.31;2018256;86;21482;-78
2021/03/02 10:23:07;;;;;;;73.72;39.92;;;;;;;8.78;76.45;102063.80;2036246;86;21165;-79
2021/03/02 10:26:11;;;;;;;71.10;38.02;;;;;;;9.09;75.72;102061.14;2038285;86;21136;-79
2021/03/02 10:29:13;;;;;;;72.78;39.50;;;;;;;9.14;74.47;102068.77;2033829;86;21696;-79
2021/03/02 10:32:16;;;;;;;66.47;37.28;;;;;;;9.01;73.83;102056.03;2034624;86;21119;-79
2021/03/02 10:35:18;;;;;;;63.78;36.68;;;;;;;9.02;73.98;102054.61;2036821;86;21160;-79
2021/03/02 10:38:20;;;;;;;66.90;37.67;;;;;;;9.12;73.41;102045.52;2038836;86;21648;-79
2021/03/02 10:41:23;;;;;;;70.15;38.80;;;;;;;9.35;72.95;102043.39;2011351;86;21172;-79
2021/03/02 10:44:24;;;;;;;64.12;35.88;;;;;;;9.52;73.03;102047.46;2030689;86;21224;-79
2021/03/02 10:47:26;;;;;;;70.25;39.55;;;;;;;9.69;72.80;102047.54;2031777;86;21576;-79
2021/03/02 10:50:27;;;;;;;72.60;39.58;;;;;;;9.87;72.34;102047.47;2029284;86;21162;-79
2021/03/02 10:53:29;;;;;;;68.67;40.10;;;;;;;10.01;72.29;102042.45;2040594;86;21222;-80
2021/03/02 10:56:31;;;;;;;66.07;37.17;;;;;;;10.14;71.64;102033.10;1998082;87;21179;-80
2021/03/02 10:59:33;;;;;;;67.50;38.33;;;;;;;10.18;70.99;102043.83;2027935;86;21205;-80
2021/03/02 11:02:34;;;;;;;79.10;42.03;;;;;;;10.26;69.79;102040.11;2066532;85;21128;-80
2021/03/02 11:05:36;;;;;;;69.95;41.50;;;;;;;10.17;70.11;102038.17;2064912;85;21209;-80
2021/03/02 11:08:38;;;;;;;70.42;41.60;;;;;;;10.17;70.52;102032.86;2068622;85;21234;-79
2021/03/02 11:11:40;;;;;;;74.72;42.20;;;;;;;10.28;69.94;102028.94;2066350;85;21192;-79
2021/03/02 11:14:41;;;;;;;75.35;42.80;;;;;;;10.32;69.74;102014.45;2067620;85;21204;-80
2021/03/02 11:17:43;;;;;;;70.00;41.63;;;;;;;10.40;68.83;102015.20;2064135;85;21140;-79
2021/03/02 11:20:45;;;;;;;77.60;43.58;;;;;;;10.43;68.83;102020.75;2049107;85;21124;-80
2021/03/02 11:23:46;;;;;;;71.20;41.65;;;;;;;10.31;68.31;102015.43;2042015;85;21179;-80
2021/03/02 11:26:49;;;;;;;76.87;44.50;;;;;;;10.39;68.38;102015.30;2041081;86;21123;-80
2021/03/02 11:29:50;;;;;;;75.95;41.98;;;;;;;10.38;68.34;102017.11;2012858;87;21683;-80
2021/03/02 11:32:52;;;;;;;76.65;44.85;;;;;;;10.54;68.34;102016.78;2030836;86;22521;-80
2021/03/02 11:35:54;;;;;;;73.35;43.08;;;;;;;10.61;67.61;102015.80;2023196;86;21111;-80
2021/03/02 11:38:55;;;;;;;79.95;45.70;;;;;;;10.58;67.70;102016.88;2028515;86;21124;-80
2021/03/02 11:41:57;;;;;;;77.05;45.52;;;;;;;10.62;67.56;102013.04;2020543;85;21200;-78
2021/03/02 11:45:00;;;;;;;71.20;43.73;;;;;;;10.61;67.52;101999.87;2020980;87;21186;-78
2021/03/02 11:48:01;;;;;;;78.12;46.25;;;;;;;10.67;67.44;101996.27;2015032;87;21183;-78
2021/03/02 11:51:03;;;;;;;81.63;47.78;;;;;;;10.75;67.38;101991.16;2018357;87;21187;-78
2021/03/02 11:54:04;;;;;;;77.30;44.98;;;;;;;10.93;66.71;101993.34;2018367;87;21100;-78
2021/03/02 11:57:06;;;;;;;80.32;45.30;;;;;;;10.93;66.70;101988.03;2017844;87;22193;-78
2021/03/02 12:00:13;;;;;;;77.37;44.20;;;;;;;11.00;66.70;101980.75;2019773;87;21208;-78
2021/03/02 12:03:15;;;;;;;80.87;45.05;;;;;;;11.09;66.65;101980.97;2017027;86;21215;-76
2021/03/02 12:06:16;;;;;;;77.97;45.20;;;;;;;11.13;65.41;101971.31;2020601;86;21198;-79
2021/03/02 12:09:18;;;;;;;78.28;46.02;;;;;;;10.98;65.93;101969.42;2018094;86;21580;-78
2021/03/02 12:12:19;;;;;;;73.28;43.73;;;;;;;10.92;65.67;101964.58;2020274;86;21232;-77
2021/03/02 12:15:21;;;;;;;75.60;44.15;;;;;;;11.05;66.05;101968.44;2018195;86;21150;-77
2021/03/02 12:18:23;;;;;;;78.42;46.48;;;;;;;11.09;65.51;101964.55;2021005;86;21135;-77
2021/03/02 12:21:25;;;;;;;81.92;44.95;;;;;;;11.14;65.63;101965.02;2018551;86;21171;-77
2021/03/02 12:24:26;;;;;;;78.60;46.35;;;;;;;11.14;65.24;101964.18;2020486;86;21183;-77
2021/03/02 12:27:28;;;;;;;82.00;46.35;;;;;;;11.27;65.43;101963.54;2016712;86;21589;-77
2021/03/02 12:30:30;;;;;;;78.57;45.08;;;;;;;11.27;64.65;101938.30;2021780;86;21225;-77
2021/03/02 12:33:31;;;;;;;83.10;46.88;;;;;;;11.27;64.65;101938.30;2018319;86;21194;-77
2021/03/02 12:36:33;;;;;;;82.50;46.00;;;;;;;11.32;64.85;101954.71;2017360;86;21606;-77
2021/03/02 12:39:34;;;;;;;73.30;43.55;;;;;;;11.43;64.57;101957.78;2018023;86;21641;-77
2021/03/02 12:42:36;;;;;;;78.30;44.55;;;;;;;11.42;64.60;101950.79;2017146;87;21187;-78
2021/03/02 12:45:38;;;;;;;77.20;44.27;;;;;;;11.52;64.29;101945.08;2015998;87;21690;-77
2021/03/02 12:48:39;;;;;;;79.60;44.05;;;;;;;11.53;64.37;101920.16;2018861;87;21182;-78
2021/03/02 12:51:41;;;;;;;77.62;45.28;;;;;;;11.76;64.08;101939.98;2016419;85;21229;-77
2021/03/02 12:54:43;;;;;;;79.27;44.88;;;;;;;11.73;64.04;101944.23;2023035;87;21836;-77
2021/03/02 12:57:45;;;;;;;71.87;40.23;;;;;;;11.72;64.05;101939.90;2015257;87;21214;-77
2021/03/02 13:00:47;;;;;;;79.00;42.80;;;;;;;11.83;63.52;101939.34;2015688;87;21200;-77
2021/03/02 13:03:52;;;;;;;79.17;42.17;;;;;;;11.77;63.40;101940.33;2019289;86;21195;-78
2021/03/02 13:06:55;;;;;;;73.85;42.70;;;;;;;11.70;63.10;101939.17;2019472;87;21203;-77
2021/03/02 13:09:57;;;;;;;70.78;41.58;;;;;;;11.71;63.42;101936.37;2017217;87;21739;-78
2021/03/02 13:13:01;;;;;;;72.55;41.18;;;;;;;11.71;63.19;101934.20;1999326;85;21162;-77
2021/03/02 13:16:04;;;;;;;68.97;39.78;;;;;;;11.68;63.07;101933.97;2020974;87;21154;-78
2021/03/02 13:19:08;;;;;;;71.75;41.65;;;;;;;11.67;63.28;101931.80;2017998;87;21131;-78
2021/03/02 13:22:10;;;;;;;67.80;41.28;;;;;;;11.73;63.08;101929.11;2016393;87;21154;-78
2021/03/02 13:25:14;;;;;;;85.28;46.28;;;;;;;11.82;62.83;101920.34;2023390;87;21191;-78
2021/03/02 13:28:16;;;;;;;68.78;39.75;;;;;;;11.81;63.02;101916.01;2017143;87;21555;-80
2021/03/02 13:31:19;;;;;;;67.17;40.05;;;;;;;11.69;62.48;101893.63;2019055;87;21537;-80
2021/03/02 13:34:23;;;;;;;67.78;40.03;;;;;;;11.70;62.68;101912.09;2017072;87;21173;-79
2021/03/02 13:37:24;;;;;;;67.50;38.10;;;;;;;11.64;62.36;101915.28;2021428;85;22514;-80
2021/03/02 13:40:26;;;;;;;75.30;40.55;;;;;;;11.59;62.34;101909.01;2039279;86;21120;-79
2021/03/02 13:43:28;;;;;;;73.67;42.93;;;;;;;11.55;62.06;101911.58;2036665;86;21188;-80
2021/03/02 13:46:30;;;;;;;73.75;40.45;;;;;;;11.50;62.12;101900.48;2036688;86;21217;-80
2021/03/02 13:49:33;;;;;;;65.62;38.15;;;;;;;11.44;62.33;101878.42;2014555;86;21214;-80
2021/03/02 13:52:36;;;;;;;63.15;36.40;;;;;;;11.65;62.11;101907.64;2034439;86;21144;-79
2021/03/02 13:55:37;;;;;;;64.65;36.50;;;;;;;11.61;62.01;101907.07;2036184;86;21518;-80
2021/03/02 13:58:41;;;;;;;61.42;35.60;;;;;;;11.45;61.48;101877.44;2036869;85;21682;-80
2021/03/02 14:01:44;;;;;;;66.77;36.68;;;;;;;11.45;61.48;101877.44;2033601;85;21234;-80